Time;durP1;ratioP1;P1;durP2;ratioP2;P2;SDS_P1;SDS_P2;PMS_P1;PMS_P2;Temp;Humidity;BMP_temperature;BMP_pressure;BME280_temperature;BME280_humidity;BME280_pressure;Samples;Min_cycle;Max_cycle;Signal;HPM_P1;HPM_P2
2022/07/06 00:00:09;0.00;0.00;0.62;0.00;0.00;0.62;2.13;1.30;;;27.00;25.10;;;;;;2259590;61;20393;-50
2022/07/06 00:02:54;0.00;0.00;0.62;0.00;0.00;0.62;2.87;1.33;;;27.00;25.10;;;;;;2259907;61;20399;-50
2022/07/06 00:05:39;0.00;0.00;0.62;0.00;0.00;0.62;2.27;1.50;;;26.90;25.10;;;;;;2259971;61;20779;-51
2022/07/06 00:08:25;0.00;0.00;0.62;0.00;0.00;0.62;2.83;1.40;;;26.90;25.10;;;;;;2259309;61;20381;-52
2022/07/06 00:11:10;0.00;0.00;0.62;0.00;0.00;0.62;2.27;1.27;;;26.90;25.10;;;;;;2259716;61;20786;-53
2022/07/06 00:13:57;0.00;0.00;0.62;0.00;0.00;0.62;3.83;1.80;;;26.80;25.10;;;;;;2259971;61;20776;-52
2022/07/06 00:16:42;0.00;0.00;0.62;0.00;0.00;0.62;3.20;2.13;;;26.80;25.20;;;;;;2259212;61;20384;-50
2022/07/06 00:19:26;0.00;0.00;0.62;0.00;0.00;0.62;2.23;1.20;;;26.70;25.30;;;;;;2259768;61;20423;-50
2022/07/06 00:22:12;0.00;0.00;0.62;0.00;0.00;0.62;2.23;1.57;;;26.60;25.30;;;;;;2259169;61;20360;-50
2022/07/06 00:24:56;0.00;0.00;0.62;0.00;0.00;0.62;1.90;1.40;;;26.50;25.40;;;;;;2259485;61;20372;-52
2022/07/06 00:27:41;0.00;0.00;0.62;0.00;0.00;0.62;2.70;1.73;;;26.50;25.50;;;;;;2259529;61;20364;-50
2022/07/06 00:30:28;0.00;0.00;0.62;0.00;0.00;0.62;4.97;1.73;;;26.40;25.70;;;;;;2259223;61;20384;-50
2022/07/06 00:33:13;0.00;0.00;0.62;0.00;0.00;0.62;5.23;1.70;;;26.30;25.70;;;;;;2259009;61;20393;-51
2022/07/06 00:35:58;0.00;0.00;0.62;0.00;0.00;0.62;6.23;2.40;;;26.20;25.80;;;;;;2259920;61;20373;-50
2022/07/06 00:38:43;0.00;0.00;0.62;0.00;0.00;0.62;11.40;2.03;;;26.20;25.90;;;;;;2258481;61;21050;-52
2022/07/06 00:41:28;0.00;0.00;0.62;0.00;0.00;0.62;3.10;1.53;;;26.20;26.00;;;;;;2259672;61;20787;-50
2022/07/06 00:44:13;0.00;0.00;0.62;0.00;0.00;0.62;5.63;1.43;;;26.10;26.10;;;;;;2259204;61;20387;-50
2022/07/06 00:47:00;0.00;0.00;0.62;0.00;0.00;0.62;2.73;1.27;;;26.00;26.10;;;;;;2259654;61;20369;-50
2022/07/06 00:52:52;0.00;0.00;0.62;0.00;0.00;0.62;5.57;1.70;;;26.00;26.20;;;;;;2258458;61;20431;-50
2022/07/06 00:55:41;0.00;0.00;0.62;0.00;0.00;0.62;2.77;1.57;;;25.90;26.20;;;;;;2259262;61;20397;-54
2022/07/06 00:58:26;0.00;0.00;0.62;0.00;0.00;0.62;2.47;1.53;;;25.90;26.20;;;;;;2259856;61;20368;-50
2022/07/06 01:01:11;0.00;0.00;0.62;0.00;0.00;0.62;2.80;2.20;;;25.80;26.30;;;;;;2258897;61;20389;-52
2022/07/06 01:03:57;0.00;0.00;0.62;0.00;0.00;0.62;3.97;1.40;;;25.80;26.30;;;;;;2259571;61;20759;-50
2022/07/06 01:06:45;0.00;0.00;0.62;0.00;0.00;0.62;2.67;1.40;;;25.80;26.40;;;;;;2259438;61;20396;-50
2022/07/06 01:09:29;0.00;0.00;0.62;0.00;0.00;0.62;3.00;1.27;;;25.70;26.30;;;;;;2259670;61;20828;-52
2022/07/06 01:12:15;0.00;0.00;0.62;0.00;0.00;0.62;2.47;1.20;;;25.70;26.40;;;;;;2259602;61;20385;-51
2022/07/06 01:15:00;0.00;0.00;0.62;0.00;0.00;0.62;2.50;1.50;;;25.70;26.40;;;;;;2258958;61;20419;-50
2022/07/06 01:17:46;0.00;0.00;0.62;0.00;0.00;0.62;2.50;1.30;;;25.60;26.50;;;;;;2259683;61;20413;-51
2022/07/06 01:20:32;0.00;0.00;0.62;0.00;0.00;0.62;5.40;1.30;;;25.70;26.50;;;;;;2259493;61;20952;-53
2022/07/06 01:23:17;0.00;0.00;0.62;0.00;0.00;0.62;3.20;1.40;;;25.60;26.50;;;;;;2258104;61;20454;-47
2022/07/06 01:26:02;0.00;0.00;0.62;0.00;0.00;0.62;2.00;1.17;;;25.60;26.50;;;;;;2259736;61;20396;-50
2022/07/06 01:28:49;0.00;0.00;0.62;0.00;0.00;0.62;2.50;1.47;;;25.60;26.60;;;;;;2258573;61;20403;-51
2022/07/06 01:31:34;0.00;0.00;0.62;0.00;0.00;0.62;2.53;1.30;;;25.60;26.60;;;;;;2259734;61;20405;-51
2022/07/06 01:34:19;0.00;0.00;0.62;0.00;0.00;0.62;2.80;1.37;;;25.50;26.50;;;;;;2259529;61;20365;-51
2022/07/06 01:37:05;0.00;0.00;0.62;0.00;0.00;0.62;3.93;1.20;;;25.50;26.50;;;;;;2258662;61;20365;-49
2022/07/06 01:39:50;0.00;0.00;0.62;0.00;0.00;0.62;2.97;1.50;;;25.50;26.50;;;;;;2259559;61;20427;-51
2022/07/06 01:42:36;0.00;0.00;0.62;0.00;0.00;0.62;1.60;1.03;;;25.50;26.50;;;;;;2260319;61;20401;-51
2022/07/06 01:45:20;0.00;0.00;0.62;0.00;0.00;0.62;1.67;1.00;;;25.50;26.60;;;;;;2258470;61;20357;-49
2022/07/06 01:48:06;0.00;0.00;0.62;0.00;0.00;0.62;4.40;1.30;;;25.50;26.60;;;;;;2259923;61;20404;-50
2022/07/06 01:50:52;0.00;0.00;0.62;0.00;0.00;0.62;2.00;1.20;;;25.40;26.60;;;;;;2258361;61;20451;-52
2022/07/06 01:53:38;0.00;0.00;0.62;0.00;0.00;0.62;2.00;1.30;;;25.40;26.70;;;;;;2258825;61;20439;-51
2022/07/06 01:56:24;0.00;0.00;0.62;0.00;0.00;0.62;2.77;1.30;;;25.40;26.80;;;;;;2259137;61;20361;-52
2022/07/06 01:59:14;0.00;0.00;0.62;0.00;0.00;0.62;2.73;1.03;;;25.40;26.80;;;;;;2258472;61;20364;-51
2022/07/06 02:01:58;0.00;0.00;0.62;0.00;0.00;0.62;3.93;1.40;;;25.30;26.80;;;;;;2260011;61;20523;-50
2022/07/06 02:04:43;0.00;0.00;0.62;0.00;0.00;0.62;2.67;1.23;;;25.30;26.90;;;;;;2260163;61;20441;-51
2022/07/06 02:07:28;0.00;0.00;0.62;0.00;0.00;0.62;4.50;1.70;;;25.30;26.90;;;;;;2258719;61;20411;-50
2022/07/06 02:10:14;0.00;0.00;0.62;0.00;0.00;0.62;2.20;1.20;;;25.30;26.90;;;;;;2259781;61;20444;-50
2022/07/06 02:13:01;0.00;0.00;0.62;0.00;0.00;0.62;3.30;1.27;;;25.30;27.40;;;;;;2259257;61;20431;-50
2022/07/06 02:15:46;0.00;0.00;0.62;0.00;0.00;0.62;2.90;1.40;;;25.30;27.00;;;;;;2260016;61;20416;-50
2022/07/06 02:18:31;0.00;0.00;0.62;0.00;0.00;0.62;1.83;1.23;;;25.30;27.00;;;;;;2259784;61;20415;-49
2022/07/06 02:21:16;0.00;0.00;0.62;0.00;0.00;0.62;2.23;1.20;;;25.20;27.00;;;;;;2259152;61;20424;-51
2022/07/06 02:24:01;0.00;0.00;0.62;0.00;0.00;0.62;2.30;1.30;;;25.20;27.00;;;;;;2259660;61;20361;-52
2022/07/06 02:26:49;0.00;0.00;0.62;0.00;0.00;0.62;3.80;1.70;;;25.20;27.00;;;;;;2259869;61;20365;-51
2022/07/06 02:29:34;0.00;0.00;0.62;0.00;0.00;0.62;2.47;1.83;;;25.20;27.00;;;;;;2255752;61;20388;-50
2022/07/06 02:32:19;0.00;0.00;0.62;0.00;0.00;0.62;5.30;1.70;;;25.20;27.10;;;;;;2261249;61;20947;-52
2022/07/06 02:35:04;0.00;0.00;0.62;0.00;0.00;0.62;5.67;1.73;;;25.20;27.00;;;;;;2260205;61;20496;-53
2022/07/06 02:37:49;0.00;0.00;0.62;0.00;0.00;0.62;4.87;1.63;;;25.10;27.00;;;;;;2260015;61;20472;-50
2022/07/06 02:40:35;0.00;0.00;0.62;0.00;0.00;0.62;4.23;1.37;;;25.10;27.10;;;;;;2259833;61;20465;-50
2022/07/06 02:43:21;0.00;0.00;0.62;0.00;0.00;0.62;2.40;1.43;;;25.10;27.10;;;;;;2258238;61;20392;-51
2022/07/06 02:46:07;0.00;0.00;0.62;0.00;0.00;0.62;2.43;1.30;;;25.00;27.10;;;;;;2260946;61;20909;-48
2022/07/06 02:48:52;0.00;0.00;0.62;0.00;0.00;0.62;2.67;1.37;;;25.00;27.20;;;;;;2258122;61;20416;-52
2022/07/06 02:51:37;0.00;0.00;0.62;0.00;0.00;0.62;4.80;1.43;;;25.00;27.20;;;;;;2259527;61;20427;-50
2022/07/06 02:54:22;0.00;0.00;0.62;0.00;0.00;0.62;3.43;1.60;;;24.90;27.30;;;;;;2260458;61;20453;-50
2022/07/06 02:57:07;0.00;0.00;0.62;0.00;0.00;0.62;4.33;2.00;;;24.90;27.30;;;;;;2260957;61;20348;-50
2022/07/06 02:59:53;0.00;0.00;0.62;0.00;0.00;0.62;3.23;1.30;;;24.80;27.40;;;;;;2260412;61;20393;-50
2022/07/06 03:02:39;0.00;0.00;0.62;0.00;0.00;0.62;2.60;1.47;;;24.80;27.40;;;;;;2260449;61;20783;-55
2022/07/06 03:05:24;0.00;0.00;0.62;0.00;0.00;0.62;2.40;1.20;;;24.70;27.50;;;;;;2260326;61;20373;-51
2022/07/06 03:08:09;0.00;0.00;0.62;0.00;0.00;0.62;3.70;1.90;;;24.70;27.60;;;;;;2259931;61;20364;-52
2022/07/06 03:10:55;0.00;0.00;0.62;0.00;0.00;0.62;5.83;1.63;;;24.70;27.70;;;;;;2256871;61;20385;-49
2022/07/06 03:13:40;0.00;0.00;0.62;0.00;0.00;0.62;5.20;1.80;;;24.60;27.70;;;;;;2258488;61;20480;-50
2022/07/06 03:16:26;0.00;0.00;0.62;0.00;0.00;0.62;2.50;1.10;;;24.60;27.70;;;;;;2259470;61;20385;-49
2022/07/06 03:19:11;0.00;0.00;0.62;0.00;0.00;0.62;2.07;1.00;;;24.60;27.80;;;;;;2260205;61;20766;-49
2022/07/06 03:21:56;0.00;0.00;0.62;0.00;0.00;0.62;2.97;1.40;;;24.60;27.90;;;;;;2259334;61;20420;-51
2022/07/06 03:24:41;0.00;0.00;0.62;0.00;0.00;0.62;3.17;1.60;;;24.60;27.90;;;;;;2256529;61;20361;-50
2022/07/06 03:27:27;0.00;0.00;0.62;0.00;0.00;0.62;4.97;1.33;;;24.50;27.90;;;;;;2258585;61;20424;-50
2022/07/06 03:30:13;0.00;0.00;0.62;0.00;0.00;0.62;2.93;1.50;;;24.50;28.00;;;;;;2259295;61;20384;-49
2022/07/06 03:33:00;0.00;0.00;0.62;0.00;0.00;0.62;1.97;1.30;;;24.50;28.00;;;;;;2259752;61;20385;-51
2022/07/06 03:35:47;0.00;0.00;0.62;0.00;0.00;0.62;4.23;2.07;;;24.40;28.00;;;;;;2258696;61;20399;-50
2022/07/06 03:38:32;0.00;0.00;0.62;0.00;0.00;0.62;3.03;1.43;;;24.40;28.00;;;;;;2259771;61;20419;-49
2022/07/06 03:41:17;0.00;0.00;0.62;0.00;0.00;0.62;11.13;1.50;;;24.40;28.10;;;;;;2259568;61;20385;-52
2022/07/06 03:44:03;0.00;0.00;0.62;0.00;0.00;0.62;2.57;1.40;;;24.40;28.10;;;;;;2258349;61;20373;-49
2022/07/06 03:46:50;0.00;0.00;0.62;0.00;0.00;0.62;2.80;1.57;;;24.30;28.10;;;;;;2259424;61;20394;-50
2022/07/06 03:49:37;0.00;0.00;0.62;0.00;0.00;0.62;2.90;1.57;;;24.30;28.20;;;;;;2258821;61;21103;-53
2022/07/06 03:52:23;0.00;0.00;0.62;0.00;0.00;0.62;3.50;1.53;;;24.30;28.20;;;;;;2259489;61;20416;-49
2022/07/06 03:55:13;0.00;0.00;0.62;0.00;0.00;0.62;3.93;1.53;;;24.30;28.20;;;;;;2260525;61;20364;-51
2022/07/06 03:58:02;0.00;0.00;0.62;0.00;0.00;0.62;3.03;1.40;;;24.30;28.30;;;;;;2259965;61;20357;-49
2022/07/06 04:00:47;0.00;0.00;0.62;0.00;0.00;0.62;3.10;1.33;;;24.20;28.30;;;;;;2261472;61;20481;-53
2022/07/06 04:03:35;0.00;0.00;0.62;0.00;0.00;0.62;3.37;1.70;;;24.20;28.30;;;;;;2260668;61;20384;-51
2022/07/06 04:06:23;0.00;0.00;0.62;0.00;0.00;0.62;2.33;1.10;;;24.20;28.40;;;;;;2259159;61;20886;-51
2022/07/06 04:09:09;0.00;0.00;0.62;0.00;0.00;0.62;3.87;1.23;;;24.20;28.40;;;;;;2259410;61;20441;-50
2022/07/06 04:11:54;0.00;0.00;0.62;0.00;0.00;0.62;3.57;1.20;;;24.20;28.40;;;;;;2258331;61;20431;-50
2022/07/06 04:14:39;0.00;0.00;0.62;0.00;0.00;0.62;2.97;1.53;;;24.10;28.50;;;;;;2259254;61;20369;-50
2022/07/06 04:20:28;0.00;0.00;0.62;0.00;0.00;0.62;7.20;1.53;;;24.10;28.60;;;;;;2258157;61;20464;-50
2022/07/06 04:23:16;0.00;0.00;0.62;0.00;0.00;0.62;3.50;1.40;;;24.00;28.60;;;;;;2259401;61;20364;-50
2022/07/06 04:26:00;0.00;0.00;0.62;0.00;0.00;0.62;4.37;1.50;;;24.00;28.70;;;;;;2259592;61;20424;-54
2022/07/06 04:28:48;0.00;0.00;0.62;0.00;0.00;0.62;3.63;2.53;;;24.00;28.80;;;;;;2259631;61;20901;-49
2022/07/06 04:31:33;0.00;0.00;0.62;0.00;0.00;0.62;3.33;1.73;;;24.00;28.80;;;;;;2259423;61;20408;-49
2022/07/06 04:34:19;0.00;0.00;0.62;0.00;0.00;0.62;4.27;1.40;;;24.00;28.90;;;;;;2258341;61;20423;-50
2022/07/06 04:37:04;0.00;0.00;0.62;0.00;0.00;0.62;2.33;1.20;;;23.90;28.90;;;;;;2259181;61;20365;-49
2022/07/06 04:39:50;0.00;0.00;0.62;0.00;0.00;0.62;2.50;1.60;;;23.90;28.90;;;;;;2259544;61;20393;-54
2022/07/06 04:42:36;0.00;0.00;0.62;0.00;0.00;0.62;5.83;1.57;;;23.90;29.00;;;;;;2258071;61;20385;-51
2022/07/06 04:45:21;0.00;0.00;0.62;0.00;0.00;0.62;4.43;2.20;;;23.90;29.10;;;;;;2259027;61;20416;-50
2022/07/06 04:48:08;0.00;0.00;0.62;0.00;0.00;0.62;2.47;1.30;;;23.90;29.20;;;;;;2259242;61;20971;-51
2022/07/06 04:50:54;0.00;0.00;0.62;0.00;0.00;0.62;3.30;1.20;;;23.90;29.20;;;;;;2258971;61;20442;-49
2022/07/06 04:53:45;0.00;0.00;0.62;0.00;0.00;0.62;5.80;1.70;;;23.90;29.20;;;;;;2259002;61;20397;-53
2022/07/06 04:56:32;0.00;0.00;0.62;0.00;0.00;0.62;1.70;1.17;;;23.90;29.30;;;;;;2258161;61;20369;-50
2022/07/06 04:59:17;0.00;0.00;0.62;0.00;0.00;0.62;4.27;1.60;;;23.80;29.30;;;;;;2258931;61;20414;-50
2022/07/06 05:02:03;0.00;0.00;0.62;0.00;0.00;0.62;3.57;1.73;;;23.90;29.30;;;;;;2259329;61;20365;-52
2022/07/06 05:04:48;0.00;0.00;0.62;0.00;0.00;0.62;4.33;1.70;;;23.90;29.30;;;;;;2257937;61;20408;-51
2022/07/06 05:07:39;0.00;0.00;0.62;0.00;0.00;0.62;2.73;1.70;;;23.80;29.30;;;;;;2259196;61;20365;-50
2022/07/06 05:10:24;0.00;0.00;0.62;0.00;0.00;0.62;1.97;1.17;;;23.80;29.30;;;;;;2260057;61;20385;-51
2022/07/06 05:13:14;0.00;0.00;0.62;0.00;0.00;0.62;3.40;1.50;;;23.90;29.30;;;;;;2259599;61;20385;-50
2022/07/06 05:15:59;0.00;0.00;0.62;0.00;0.00;0.62;3.30;1.60;;;23.80;29.30;;;;;;2259562;61;20984;-51
2022/07/06 05:18:44;0.00;0.00;0.62;0.00;0.00;0.62;2.90;1.50;;;23.80;29.30;;;;;;2258239;61;20397;-51
2022/07/06 05:21:29;0.00;0.00;0.62;0.00;0.00;0.62;4.77;1.67;;;23.80;29.30;;;;;;2259151;61;20431;-52
2022/07/06 05:24:18;0.00;0.00;0.62;0.00;0.00;0.62;2.73;1.53;;;23.80;29.30;;;;;;2259475;61;20411;-50
2022/07/06 05:27:04;0.00;0.00;0.62;0.00;0.00;0.62;2.43;1.10;;;23.80;29.30;;;;;;2259477;61;20364;-49
2022/07/06 05:29:51;0.00;0.00;0.62;0.00;0.00;0.62;4.00;1.17;;;23.80;29.30;;;;;;2259758;61;20421;-54
2022/07/06 05:32:37;0.00;0.00;0.62;0.00;0.00;0.62;4.20;1.60;;;23.80;29.40;;;;;;2259858;61;20462;-54
2022/07/06 05:35:22;0.00;0.00;0.62;0.00;0.00;0.62;3.00;1.27;;;23.80;29.50;;;;;;2260783;61;20777;-51
2022/07/06 05:38:08;0.00;0.00;0.62;0.00;0.00;0.62;3.97;1.80;;;23.80;29.60;;;;;;2260069;61;20893;-51
2022/07/06 05:40:53;0.00;0.00;0.62;0.00;0.00;0.62;5.07;1.93;;;23.80;29.60;;;;;;2259445;61;20946;-51
2022/07/06 05:43:38;0.00;0.00;0.62;0.00;0.00;0.62;5.37;1.80;;;23.80;29.70;;;;;;2260259;61;20357;-51
2022/07/06 05:46:25;0.00;0.00;0.62;0.00;0.00;0.62;2.90;1.30;;;23.80;29.70;;;;;;2260426;61;20992;-54
2022/07/06 05:52:14;0.00;0.00;0.62;0.00;0.00;0.62;3.80;1.87;;;23.80;29.70;;;;;;2260141;61;20804;-50
2022/07/06 05:54:59;0.00;0.00;0.62;0.00;0.00;0.62;4.70;1.77;;;23.80;29.80;;;;;;2260345;61;20882;-54
2022/07/06 05:57:44;0.00;0.00;0.62;0.00;0.00;0.62;4.50;1.83;;;23.80;29.70;;;;;;2260405;61;20423;-51
2022/07/06 06:00:29;0.00;0.00;0.62;0.00;0.00;0.62;5.47;1.80;;;23.80;29.80;;;;;;2260743;61;20426;-51
2022/07/06 06:03:21;0.00;0.00;0.62;0.00;0.00;0.62;4.63;1.77;;;23.90;29.90;;;;;;2260799;61;20408;-51
2022/07/06 06:06:08;0.00;0.00;0.62;0.00;0.00;0.62;2.57;1.63;;;23.80;29.80;;;;;;2260869;61;20361;-52
2022/07/06 06:08:53;0.00;0.00;0.62;0.00;0.00;0.62;5.77;2.13;;;23.90;29.90;;;;;;2261320;61;20461;-53
2022/07/06 06:11:37;0.00;0.00;0.62;0.00;0.00;0.62;4.33;1.90;;;23.90;29.80;;;;;;2260378;61;20397;-50
2022/07/06 06:14:23;0.00;0.00;0.62;0.00;0.00;0.62;2.40;1.40;;;23.90;29.80;;;;;;2260902;61;20397;-53
2022/07/06 06:17:09;0.00;0.00;0.62;0.00;0.00;0.62;2.77;1.70;;;23.90;29.90;;;;;;2261126;61;20357;-53
2022/07/06 06:19:56;0.00;0.00;0.62;0.00;0.00;0.62;4.07;1.80;;;23.90;29.90;;;;;;2260975;61;20389;-52
2022/07/06 06:22:49;0.00;0.00;0.62;0.00;0.00;0.62;4.07;1.43;;;23.90;29.80;;;;;;2260902;61;20345;-51
2022/07/06 06:25:36;0.00;0.00;0.62;0.00;0.00;0.62;2.70;1.43;;;23.90;29.80;;;;;;2259510;61;20393;-57
2022/07/06 06:28:21;0.00;0.00;0.62;0.00;0.00;0.62;4.40;1.40;;;23.90;29.80;;;;;;2257637;61;20364;-55
2022/07/06 06:31:06;0.00;0.00;0.62;0.00;0.00;0.62;5.43;1.77;;;23.90;29.80;;;;;;2260647;61;20432;-54
2022/07/06 06:33:52;0.00;0.00;0.62;0.00;0.00;0.62;2.10;1.20;;;23.90;29.70;;;;;;2257749;61;20390;-57
2022/07/06 06:36:38;0.00;0.00;0.62;0.00;0.00;0.62;2.80;1.50;;;23.90;29.70;;;;;;2256059;61;20953;-56
2022/07/06 06:39:24;0.00;0.00;0.62;0.00;0.00;0.62;3.37;1.23;;;24.00;29.70;;;;;;2255766;61;20374;-58
2022/07/06 06:42:09;0.00;0.00;0.62;0.00;0.00;0.62;4.47;1.97;;;24.00;29.70;;;;;;2256685;61;20361;-59
2022/07/06 06:44:57;0.00;0.00;0.62;0.00;0.00;0.62;6.30;1.43;;;24.00;29.60;;;;;;2256688;61;20408;-57
2022/07/06 06:47:41;0.00;0.00;0.62;0.00;0.00;0.62;3.80;1.40;;;24.00;29.50;;;;;;2255260;61;20370;-58
2022/07/06 06:50:27;0.00;0.00;0.62;0.00;0.00;0.62;2.40;1.40;;;24.00;29.70;;;;;;2256688;61;20385;-56
2022/07/06 06:53:13;0.00;0.00;0.62;0.00;0.00;0.62;2.47;1.60;;;24.00;29.70;;;;;;2256795;61;20938;-57
2022/07/06 06:56:08;0.00;0.00;0.62;0.00;0.00;0.62;3.20;1.40;;;24.00;29.70;;;;;;2255812;61;20373;-57
2022/07/06 06:59:01;0.00;0.00;0.62;0.00;0.00;0.62;3.43;1.70;;;24.00;29.80;;;;;;2256833;61;20413;-57
2022/07/06 07:01:54;0.00;0.00;0.62;0.00;0.00;0.62;3.07;1.70;;;24.00;29.80;;;;;;2256799;61;20769;-55
2022/07/06 07:04:38;0.00;0.00;0.62;0.00;0.00;0.62;2.40;1.53;;;24.00;29.70;;;;;;2256660;61;20366;-55
2022/07/06 07:07:23;0.00;0.00;0.62;0.00;0.00;0.62;3.33;1.30;;;24.00;29.60;;;;;;2258567;61;20369;-57
2022/07/06 07:10:10;0.00;0.00;0.62;0.00;0.00;0.62;2.97;1.33;;;24.00;29.60;;;;;;2254372;61;20382;-54
2022/07/06 07:12:55;0.00;0.00;0.62;0.00;0.00;0.62;2.43;1.13;;;24.00;29.60;;;;;;2680559;45;20914;-56
2022/07/06 07:15:39;0.00;0.00;0.62;0.00;0.00;0.62;2.53;1.17;;;24.10;29.60;;;;;;2253936;61;20420;-56
2022/07/06 07:18:24;0.00;0.00;0.62;0.00;0.00;0.62;4.03;1.27;;;24.10;30.00;;;;;;2255532;61;20436;-54
2022/07/06 07:21:09;0.00;0.00;0.62;0.00;0.00;0.62;3.27;1.47;;;24.10;29.60;;;;;;2253738;61;20382;-54
2022/07/06 07:23:54;0.00;0.00;0.62;0.00;0.00;0.62;2.40;1.27;;;24.10;29.50;;;;;;2255470;61;20433;-55
2022/07/06 07:26:41;0.00;0.00;0.62;0.00;0.00;0.62;6.97;1.70;;;24.10;29.50;;;;;;2256747;61;20458;-57
2022/07/06 07:29:26;0.00;0.00;0.62;0.00;0.00;0.62;2.00;1.30;;;24.10;29.50;;;;;;2256293;61;20350;-52
2022/07/06 07:32:10;0.00;0.00;0.62;0.00;0.00;0.62;2.83;1.10;;;24.10;29.50;;;;;;2255393;61;20378;-57
2022/07/06 07:34:55;0.00;0.00;0.62;0.00;0.00;0.62;2.90;1.67;;;24.20;29.50;;;;;;2256549;61;20919;-51
2022/07/06 07:37:40;0.00;0.00;0.62;0.00;0.00;0.62;3.60;1.47;;;24.10;29.50;;;;;;2256151;61;20458;-49
2022/07/06 07:40:27;0.00;0.00;0.62;0.00;0.00;0.62;3.50;1.30;;;24.20;29.50;;;;;;2254586;61;20381;-51
2022/07/06 07:43:13;0.00;0.00;0.62;0.00;0.00;0.62;4.33;1.60;;;24.10;29.50;;;;;;2256030;61;20362;-55
2022/07/06 07:45:58;0.00;0.00;0.62;0.00;0.00;0.62;3.70;1.47;;;24.20;29.50;;;;;;2256277;61;20819;-53
2022/07/06 07:48:42;0.00;0.00;0.62;0.00;0.00;0.62;5.20;1.30;;;24.20;29.60;;;;;;2256374;61;21000;-54
2022/07/06 07:51:28;0.00;0.00;0.62;0.00;0.00;0.62;4.40;1.20;;;24.20;29.30;;;;;;2255046;61;20532;-52
2022/07/06 07:54:13;0.00;0.00;0.62;0.00;0.00;0.62;4.17;1.70;;;24.30;29.30;;;;;;2254677;61;20386;-57
2022/07/06 07:56:58;0.00;0.00;0.62;0.00;0.00;0.62;6.13;1.00;;;24.30;29.20;;;;;;2487121;53;20347;-59
2022/07/06 07:59:45;0.00;0.00;0.62;0.00;0.00;0.62;3.77;1.10;;;24.30;29.20;;;;;;2253495;61;20395;-56
2022/07/06 08:02:30;0.00;0.00;0.62;0.00;0.00;0.62;3.00;1.27;;;24.30;29.20;;;;;;2251537;61;20451;-57
2022/07/06 08:05:15;0.00;0.00;0.62;0.00;0.00;0.62;1.97;0.90;;;24.30;29.10;;;;;;2252291;61;20359;-54
2022/07/06 08:08:00;0.00;0.00;0.62;0.00;0.00;0.62;3.00;1.10;;;24.40;29.10;;;;;;2491456;53;20365;-50
2022/07/06 08:10:46;0.00;0.00;0.62;0.00;0.00;0.62;2.27;1.33;;;24.40;28.90;;;;;;2255549;61;21187;-54
2022/07/06 08:13:33;0.00;0.00;0.62;0.00;0.00;0.62;6.73;1.40;;;24.40;28.90;;;;;;2255432;61;20477;-54
2022/07/06 08:16:20;0.00;0.00;0.62;0.00;0.00;0.62;2.17;1.20;;;24.50;28.90;;;;;;2255023;61;20389;-53
2022/07/06 08:19:05;0.00;0.00;0.62;0.00;0.00;0.62;3.30;1.00;;;24.50;28.80;;;;;;2256195;61;20408;-52
2022/07/06 08:21:49;0.00;0.00;0.62;0.00;0.00;0.62;2.53;1.13;;;24.50;28.80;;;;;;2255967;61;20401;-55
2022/07/06 08:24:35;0.00;0.00;0.62;0.00;0.00;0.62;2.10;1.03;;;24.50;29.30;;;;;;2254037;61;20890;-52
2022/07/06 08:27:19;0.00;0.00;0.62;0.00;0.00;0.62;1.50;0.93;;;24.60;28.70;;;;;;2255851;61;20412;-53
2022/07/06 08:30:06;0.00;0.00;0.62;0.00;0.00;0.62;5.43;1.30;;;24.60;28.60;;;;;;2255933;61;20976;-54
2022/07/06 08:32:53;0.00;0.00;0.62;0.00;0.00;0.62;2.20;1.20;;;24.60;28.50;;;;;;2254765;61;20972;-54
2022/07/06 08:35:38;0.00;0.00;0.62;0.00;0.00;0.62;1.60;0.80;;;24.60;28.40;;;;;;2511250;53;20369;-52
2022/07/06 08:38:23;0.00;0.00;0.62;0.00;0.00;0.62;4.43;1.13;;;24.70;28.50;;;;;;2254414;61;20374;-56
2022/07/06 08:41:09;0.00;0.00;0.62;0.00;0.00;0.62;5.23;0.93;;;24.70;28.40;;;;;;2255677;61;20425;-59
2022/07/06 08:43:54;0.00;0.00;0.62;0.00;0.00;0.62;2.60;1.37;;;24.70;28.40;;;;;;2255930;61;20365;-57
2022/07/06 08:46:40;0.00;0.00;0.62;0.00;0.00;0.62;3.60;1.27;;;24.70;28.40;;;;;;2254572;61;20362;-51
2022/07/06 08:49:27;0.00;0.00;0.62;0.00;0.00;0.62;2.53;0.77;;;24.80;28.40;;;;;;2254555;61;20424;-58
2022/07/06 08:52:12;0.00;0.00;0.62;0.00;0.00;0.62;3.07;1.07;;;24.80;28.40;;;;;;2256226;61;20381;-53
2022/07/06 08:55:01;0.00;0.00;0.62;0.00;0.00;0.62;1.63;0.90;;;24.80;28.30;;;;;;2254127;61;20408;-56
2022/07/06 08:57:47;0.00;0.00;0.62;0.00;0.00;0.62;2.10;1.13;;;24.90;28.40;;;;;;2256086;61;20397;-57
2022/07/06 09:00:33;0.00;0.00;0.62;0.00;0.00;0.62;4.07;0.80;;;24.90;28.30;;;;;;2254533;61;20385;-55
2022/07/06 09:03:19;0.00;0.00;0.62;0.00;0.00;0.62;2.57;1.00;;;25.00;28.30;;;;;;2255959;61;20358;-55
2022/07/06 09:06:07;0.00;0.00;0.62;0.00;0.00;0.62;1.70;0.70;;;25.00;28.20;;;;;;2278945;61;20458;-52
2022/07/06 09:08:55;0.00;0.00;0.62;0.00;0.00;0.62;3.43;1.23;;;25.00;28.10;;;;;;2254602;61;20786;-51
2022/07/06 09:11:40;0.00;0.00;0.62;0.00;0.00;0.62;2.97;1.10;;;25.00;27.90;;;;;;2256999;61;20440;-53
2022/07/06 09:14:25;0.00;0.00;0.62;0.00;0.00;0.62;2.63;1.10;;;25.00;27.80;;;;;;2256416;61;20417;-59
2022/07/06 09:17:11;0.00;0.00;0.62;0.00;0.00;0.62;2.30;0.97;;;25.10;27.80;;;;;;2255936;61;20393;-53
2022/07/06 09:19:57;0.00;0.00;0.62;0.00;0.00;0.62;1.90;1.10;;;25.10;27.80;;;;;;2256492;61;20784;-53
2022/07/06 09:22:43;0.00;0.00;0.62;0.00;0.00;0.62;2.00;1.20;;;25.10;27.70;;;;;;2382072;53;20401;-56
2022/07/06 09:25:29;0.00;0.00;0.62;0.00;0.00;0.62;2.90;1.10;;;25.10;27.50;;;;;;2256554;61;20385;-52
2022/07/06 09:28:14;0.00;0.00;0.62;0.00;0.00;0.62;2.03;1.03;;;25.10;27.70;;;;;;2254251;61;20428;-54
2022/07/06 09:31:07;0.00;0.00;0.62;0.00;0.00;0.62;2.37;1.07;;;25.20;27.40;;;;;;2254786;61;20385;-50
2022/07/06 09:33:59;0.00;0.00;0.62;0.00;0.00;0.62;3.03;1.37;;;25.20;27.30;;;;;;2256358;61;20913;-54
2022/07/06 09:36:47;0.00;0.00;0.62;0.00;0.00;0.62;2.43;1.00;;;25.20;27.20;;;;;;2256066;61;20373;-54
2022/07/06 09:39:33;0.00;0.00;0.62;0.00;0.00;0.62;2.30;1.17;;;25.20;27.10;;;;;;2255551;61;20358;-53
2022/07/06 09:42:25;0.00;0.00;0.62;0.00;0.00;0.62;1.60;0.80;;;25.20;27.00;;;;;;2256340;61;20361;-52
2022/07/06 09:45:10;0.00;0.00;0.62;0.00;0.00;0.62;1.70;0.83;;;25.20;27.00;;;;;;2254631;61;20362;-52
2022/07/06 09:47:55;0.00;0.00;0.62;0.00;0.00;0.62;3.57;1.10;;;25.20;26.90;;;;;;2256469;61;20357;-53
2022/07/06 09:50:47;0.00;0.00;0.62;0.00;0.00;0.62;2.90;1.10;;;25.20;26.90;;;;;;2256748;61;20397;-56
2022/07/06 09:53:35;0.00;0.00;0.62;0.00;0.00;0.62;1.97;0.90;;;25.20;26.90;;;;;;2254679;61;20401;-57
2022/07/06 09:56:21;0.00;0.00;0.62;0.00;0.00;0.62;3.20;1.10;;;25.20;26.80;;;;;;2256357;61;20369;-49
2022/07/06 09:59:09;0.00;0.00;0.62;0.00;0.00;0.62;1.93;0.80;;;25.20;26.80;;;;;;2256552;61;20369;-56
2022/07/06 10:01:57;0.00;0.00;0.62;0.00;0.00;0.62;1.70;1.00;;;25.20;26.70;;;;;;2256570;61;20362;-58
2022/07/06 10:04:44;0.00;0.00;0.62;0.00;0.00;0.62;1.70;0.90;;;25.20;26.60;;;;;;2257640;61;20377;-59
2022/07/06 10:07:30;0.00;0.00;0.62;0.00;0.00;0.62;1.80;0.90;;;25.20;26.50;;;;;;2257849;61;20886;-60
2022/07/06 10:10:16;0.00;0.00;0.62;0.00;0.00;0.62;2.40;1.27;;;25.20;26.40;;;;;;2257587;61;20472;-56
2022/07/06 10:13:05;0.00;0.00;0.62;0.00;0.00;0.62;2.73;1.07;;;25.20;26.40;;;;;;2256698;61;20496;-57
2022/07/06 10:15:51;0.00;0.00;0.62;0.00;0.00;0.62;2.60;1.10;;;25.20;26.30;;;;;;2255439;61;20403;-57
2022/07/06 10:18:36;0.00;0.00;0.62;0.00;0.00;0.62;3.00;0.80;;;25.20;26.30;;;;;;2257290;61;20412;-54
2022/07/06 10:21:22;0.00;0.00;0.62;0.00;0.00;0.62;2.20;1.00;;;25.20;26.20;;;;;;2256490;61;20408;-57
2022/07/06 10:24:12;0.00;0.00;0.62;0.00;0.00;0.62;3.30;1.20;;;25.20;26.20;;;;;;2257019;61;20393;-56
2022/07/06 10:27:01;0.00;0.00;0.62;0.00;0.00;0.62;2.13;1.23;;;25.30;26.20;;;;;;2257962;61;20366;-60
2022/07/06 10:29:47;0.00;0.00;0.62;0.00;0.00;0.62;2.30;1.10;;;25.30;26.20;;;;;;2256617;61;20441;-56
2022/07/06 10:32:32;0.00;0.00;0.62;0.00;0.00;0.62;1.90;1.00;;;25.30;26.10;;;;;;2256717;61;20513;-56
2022/07/06 10:35:18;0.00;0.00;0.62;0.00;0.00;0.62;2.23;0.90;;;25.30;26.00;;;;;;2256360;61;20369;-54
2022/07/06 10:38:08;0.00;0.00;0.62;0.00;0.00;0.62;3.10;1.10;;;25.30;26.00;;;;;;2253599;61;20504;-55
2022/07/06 10:41:02;0.00;0.00;0.62;0.00;0.00;0.62;1.93;1.70;;;25.30;25.90;;;;;;2254087;61;20444;-52
2022/07/06 10:43:48;0.00;0.00;0.62;0.00;0.00;0.62;2.40;1.20;;;25.30;25.80;;;;;;2254543;61;20416;-54
2022/07/06 10:46:36;0.00;0.00;0.62;0.00;0.00;0.62;1.80;1.00;;;25.30;25.80;;;;;;2256295;61;20353;-54
2022/07/06 10:49:22;0.00;0.00;0.62;0.00;0.00;0.62;1.70;0.90;;;25.30;25.90;;;;;;2256120;61;20899;-56
2022/07/06 10:52:07;0.00;0.00;0.62;0.00;0.00;0.62;3.53;0.97;;;25.30;25.90;;;;;;2254926;61;20377;-54
2022/07/06 10:54:56;0.00;0.00;0.62;0.00;0.00;0.62;2.57;1.00;;;25.40;26.00;;;;;;2255805;61;20890;-53
2022/07/06 10:57:52;0.00;0.00;0.62;0.00;0.00;0.62;1.70;0.80;;;25.40;25.80;;;;;;2256323;61;20358;-53
2022/07/06 11:00:51;0.00;0.00;0.62;0.00;0.00;0.62;2.17;0.90;;;25.40;25.80;;;;;;2256338;61;20477;-54
2022/07/06 11:03:43;0.00;0.00;0.62;0.00;0.00;0.62;1.70;0.90;;;25.40;25.70;;;;;;2254174;61;20909;-53